עמוד ראשי
METAR-TAF:

METAR-TAF

שדות תעופה :

Manta, אקוודור

קו רוחב: 00-57S, קו אורך: 080-41W, גובה: 13מטר

תצפית מזג אוויר נוכחית

הדו"ח נערך לפני 57דקות, בשעה 14:00 UTC
רוח 7קשר מכיוון דרום, משתנה בין דרום-מזרח ו דרום/דרום-מערב
טמפרטורת 28 צלסיוס
לחות 74%
לחץ 1011 hPa
ראות 10 קילומטר או יותר
עננים בינוניים בגובה 2600רגל

METAR: SEMT 241400Z 18007KT 130V200 9999 BKN026 28/23 Q1011 RMK A2986

זמן: 09:57 (14:57 UTC)

תחזית

הדו"ח נערך לפני 4 שעות ו 17דקות, בשעה 10:40 UTC
תחזית בתוקף מ 24 ב 12 UTC עד 25 ב 12 UTC
רוח 8קשר מכיוון דרום
ראות 10 קילומטר או יותר
עננים בינוניים בגובה 2300רגל
יעשה מ
24 ב 16 UTC עד 24 ב 18 UTC
רוח 6קשר מכיוון מזרח/דרום-מזרח
עננים פזורים בגובה 2600רגל
יעשה מ
24 ב 23 UTC עד 25 ב 01 UTC
רוח 5קשר מכיוון מערב/דרום-מערב
עננים פזורים בגובה 2300רגל
עננים פזורים בגובה 10000רגל
יעשה מ
25 ב 10 UTC עד 25 ב 12 UTC
רוח 6קשר מכיוון דרום
עננים בינוניים בגובה 2000רגל

TAF: SEMT 241040Z 2412/2512 18008KT 9999 BKN023 BECMG 2416/2418 12006KT SCT026 BECMG 2423/2501 25005KT SCT023 SCT100 BECMG 2510/2512 19006KT BKN020 TX31/2420Z TN25/2510Z

תצפיות ותחזיות מזג אוויר לגבי יותר מ- 4,000 שדות תעופה ברחבי העולם. דוחות METAR ו- TAF.

התחנות הזמינות מסומנות בנקודות צהובות ואדומות על גבי המפה.

העבר את העכבר לנקודה הצבעונית על מנת לראות את שם התחנה.

לאחר מכן, לחץ כדי לראות את תוכן ואת תחזיות מזג האוויר.

כדי לשנות את המפה: לחץ על הכפתורים הירוקים עם הפלוס השחור כדי להתקרב; על הכפתור הירוק עם המקף כדי להתרחק; או בחיצים הירוקים למפות סמוכות.


METAR-TAF: